createdAt,value
2018-09-10T00:00:27.234Z,60.84
2018-09-10T00:01:27.195Z,60.94
2018-09-10T00:02:27.178Z,60.94
2018-09-10T00:03:27.168Z,61.11
2018-09-10T00:04:27.199Z,61.34
2018-09-10T00:05:27.146Z,60.64
2018-09-10T00:06:27.175Z,61.14
2018-09-10T00:07:27.124Z,61.14
2018-09-10T00:08:27.120Z,61.14
2018-09-10T00:09:27.107Z,61.24
2018-09-10T00:10:27.116Z,61.24
2018-09-10T00:11:27.079Z,61.14
2018-09-10T00:12:27.090Z,61.04
2018-09-10T00:13:27.054Z,60.81
2018-09-10T00:14:27.049Z,60.81
2018-09-10T00:15:27.076Z,60.74
2018-09-10T00:16:27.059Z,60.64
2018-09-10T00:17:27.044Z,60.81
2018-09-10T00:18:27.014Z,60.51
2018-09-10T00:19:27.042Z,60.81
2018-09-10T00:20:27.034Z,60.71
2018-09-10T00:21:27.014Z,60.64
2018-09-10T00:22:26.956Z,60.61
2018-09-10T00:23:26.949Z,60.71
2018-09-10T00:24:26.949Z,60.84
2018-09-10T00:25:26.935Z,60.74
2018-09-10T00:26:26.928Z,61.24
2018-09-10T00:27:26.927Z,60.74
2018-09-10T00:28:26.900Z,60.81
2018-09-10T00:29:26.901Z,61.11
2018-09-10T00:30:26.884Z,60.84
2018-09-10T00:31:26.880Z,60.74
2018-09-10T00:32:26.877Z,61.14
2018-09-10T00:33:26.854Z,61.04
2018-09-10T00:34:26.839Z,60.71
2018-09-10T00:35:26.844Z,61.14
2018-09-10T00:36:26.813Z,60.53
2018-09-10T00:37:26.841Z,61.21
2018-09-10T00:38:26.790Z,60.84
2018-09-10T00:39:26.802Z,60.81
2018-09-10T00:40:26.772Z,61.44
2018-09-10T00:41:26.754Z,60.64
2018-09-10T00:42:26.773Z,61.04
2018-09-10T00:43:26.772Z,60.71
2018-09-10T00:44:26.759Z,60.94
2018-09-10T00:45:26.717Z,60.74
2018-09-10T00:46:26.699Z,60.74
2018-09-10T00:47:26.727Z,60.74
2018-09-10T00:48:26.683Z,61.14
2018-09-10T00:49:26.926Z,60.94
2018-09-10T00:50:26.659Z,61.24
2018-09-10T00:51:26.644Z,60.74
2018-09-10T00:52:26.639Z,60.94
2018-09-10T00:53:26.629Z,61.14
2018-09-10T00:54:26.639Z,60.94
2018-09-10T00:55:26.603Z,60.74
2018-09-10T00:56:26.588Z,60.74
2018-09-10T00:57:26.576Z,60.71
2018-09-10T00:58:26.591Z,60.51
2018-09-10T00:59:26.552Z,61.24
2018-09-10T01:00:26.570Z,60.64
2018-09-10T01:01:26.573Z,60.84
2018-09-10T01:02:26.532Z,60.84
2018-09-10T01:03:26.517Z,61.24
2018-09-10T01:04:26.508Z,61.24
2018-09-10T01:05:26.504Z,60.94
2018-09-10T01:06:26.499Z,61.04
2018-09-10T01:07:26.479Z,61.14
2018-09-10T01:08:26.456Z,60.74
2018-09-10T01:09:26.529Z,60.64
2018-09-10T01:10:26.457Z,61.14
2018-09-10T01:11:26.426Z,61.24
2018-09-10T01:12:26.418Z,60.64
2018-09-10T01:13:26.483Z,61.04
2018-09-10T01:14:26.391Z,61.24
2018-09-10T01:15:26.407Z,60.84
2018-09-10T01:16:26.401Z,60.71
2018-09-10T01:17:26.356Z,61.04
2018-09-10T01:18:26.345Z,61.14
2018-09-10T01:19:26.338Z,60.84
2018-09-10T01:20:26.324Z,60.94
2018-09-10T01:21:26.318Z,61.04
2018-09-10T01:22:26.334Z,60.74
2018-09-10T01:23:26.287Z,60.84
2018-09-10T01:24:26.280Z,60.74
2018-09-10T01:25:26.429Z,61.34
2018-09-10T01:26:26.257Z,61.14
2018-09-10T01:27:26.244Z,60.84
2018-09-10T01:28:26.245Z,60.64
2018-09-10T01:29:26.226Z,60.64
2018-09-10T01:30:26.256Z,60.94
2018-09-10T01:31:26.207Z,61.14
2018-09-10T01:32:26.186Z,61.14
2018-09-10T01:33:26.177Z,61.14
2018-09-10T01:34:26.166Z,60.84
2018-09-10T01:35:26.152Z,60.74
2018-09-10T01:36:26.164Z,60.84
2018-09-10T01:37:26.134Z,61.24
2018-09-10T01:38:26.121Z,61.24
2018-09-10T01:39:26.107Z,61.14
2018-09-10T01:40:26.122Z,60.84
2018-09-10T01:41:26.085Z,61.14
2018-09-10T01:42:26.078Z,60.84
2018-09-10T01:43:26.079Z,60.64
2018-09-10T01:44:26.111Z,61.04
2018-09-10T01:45:26.048Z,60.74
2018-09-10T01:46:26.062Z,60.94
2018-09-10T01:47:26.027Z,61.34
2018-09-10T01:48:26.026Z,60.44
2018-09-10T01:49:26.002Z,60.94
2018-09-10T01:50:25.992Z,61.14
2018-09-10T01:51:26.267Z,60.84
2018-09-10T01:52:25.966Z,60.74
2018-09-10T01:53:25.951Z,61.34
2018-09-10T01:54:25.942Z,60.53
2018-09-10T01:55:25.930Z,61.04
2018-09-10T01:56:25.921Z,61.14
2018-09-10T01:57:25.930Z,61.44
2018-09-10T01:58:25.899Z,61.34
2018-09-10T01:59:25.914Z,60.64
2018-09-10T02:00:25.872Z,61.34
2018-09-10T02:01:25.885Z,61.14
2018-09-10T02:02:25.852Z,61.14
2018-09-10T02:03:25.839Z,60.64
2018-09-10T02:04:25.834Z,60.74
2018-09-10T02:05:25.822Z,61.14
2018-09-10T02:06:25.824Z,61.14
2018-09-10T02:07:25.789Z,61.34
2018-09-10T02:08:25.786Z,61.34
2018-09-10T02:09:25.767Z,60.97
2018-09-10T02:10:25.760Z,60.64
2018-09-10T02:11:25.785Z,61.24
2018-09-10T02:12:25.737Z,61.14
2018-09-10T02:13:25.742Z,60.94
2018-09-10T02:14:25.716Z,60.94
2018-09-10T02:15:25.702Z,60.64
2018-09-10T02:16:25.714Z,61.24
2018-09-10T02:17:25.675Z,60.84
2018-09-10T02:18:25.669Z,61.04
2018-09-10T02:19:25.657Z,61.24
2018-09-10T02:20:25.710Z,60.64
2018-09-10T02:21:25.659Z,60.84
2018-09-10T02:22:25.621Z,60.74
2018-09-10T02:23:25.645Z,60.74
2018-09-10T02:24:25.597Z,60.64
2018-09-10T02:25:25.596Z,60.44
2018-09-10T02:26:25.596Z,60.64
2018-09-10T02:27:25.669Z,60.84
2018-09-10T02:28:25.552Z,60.44
2018-09-10T02:29:25.543Z,60.64
2018-09-10T02:30:25.537Z,60.94
2018-09-10T02:31:25.523Z,60.74
2018-09-10T02:32:25.532Z,61.14
2018-09-10T02:33:25.497Z,60.44
2018-09-10T02:34:25.485Z,60.84
2018-09-10T02:35:25.480Z,60.64
2018-09-10T02:36:25.489Z,60.94
2018-09-10T02:37:25.452Z,60.84
2018-09-10T02:38:25.463Z,61.04
2018-09-10T02:39:25.470Z,61.37
2018-09-10T02:40:25.418Z,60.74
2018-09-10T02:41:25.424Z,60.74
2018-09-10T02:42:25.420Z,60.74
2018-09-10T02:43:25.385Z,60.44
2018-09-10T02:44:25.381Z,60.84
2018-09-10T02:45:25.364Z,61.14
2018-09-10T02:46:25.351Z,60.74
2018-09-10T02:47:25.359Z,61.24
2018-09-10T02:48:25.328Z,61.04
2018-09-10T02:49:25.316Z,60.94
2018-09-10T02:50:25.304Z,61.24
2018-09-10T02:51:25.299Z,61.34
2018-09-10T02:52:25.307Z,61.24
2018-09-10T02:53:25.299Z,61.24
2018-09-10T02:54:25.255Z,60.64
2018-09-10T02:55:25.246Z,60.94
2018-09-10T02:56:25.236Z,61.34
2018-09-10T02:57:25.224Z,61.24
2018-09-10T02:58:25.251Z,61.04
2018-09-10T02:59:25.212Z,61.24
2018-09-10T03:00:25.219Z,60.57
2018-09-10T03:01:25.183Z,61.07
2018-09-10T03:02:25.176Z,61.24
2018-09-10T03:03:25.161Z,60.94
2018-09-10T03:04:25.169Z,61.14
2018-09-10T03:05:25.142Z,61.34
2018-09-10T03:06:25.120Z,61.24
2018-09-10T03:07:25.132Z,60.74
2018-09-10T03:08:25.113Z,60.74
2018-09-10T03:09:25.115Z,61.24
2018-09-10T03:10:25.077Z,61.04
2018-09-10T03:11:25.074Z,60.94
2018-09-10T03:12:25.077Z,60.53
2018-09-10T03:13:25.056Z,61.14
2018-09-10T03:14:25.070Z,61.37
2018-09-10T03:15:25.042Z,61.44
2018-09-10T03:16:25.013Z,61.07
2018-09-10T03:17:25.027Z,61.07
2018-09-10T03:18:24.986Z,61.27
2018-09-10T03:19:25.004Z,60.97
2018-09-10T03:20:24.959Z,61.04
2018-09-10T03:21:24.963Z,61.27
2018-09-10T03:22:24.941Z,61.24
2018-09-10T03:23:24.957Z,60.74
2018-09-10T03:24:24.938Z,60.84
2018-09-10T03:25:24.916Z,60.74
2018-09-10T03:26:24.922Z,61.24
2018-09-10T03:27:24.912Z,61.27
2018-09-10T03:28:24.877Z,61.34
2018-09-10T03:29:24.866Z,60.84
2018-09-10T03:31:41.090Z,60.97
2018-09-10T03:32:41.053Z,61.67
2018-09-10T03:33:41.129Z,61.98
2018-09-10T03:34:41.060Z,61.77
2018-09-10T03:35:41.021Z,61.14
2018-09-10T03:36:41.029Z,61.17
2018-09-10T03:37:41.005Z,60.94
2018-09-10T03:38:41.020Z,60.84
2018-09-10T03:39:40.980Z,61.17
2018-09-10T03:40:40.984Z,61.47
2018-09-10T03:41:40.990Z,61.77
2018-09-10T03:42:40.943Z,61.14
2018-09-10T03:43:40.936Z,61.57
2018-09-10T03:44:40.953Z,61.47
2018-09-10T03:45:40.913Z,61.44
2018-09-10T03:46:40.902Z,61.44
2018-09-10T03:47:40.897Z,61.74
2018-09-10T03:48:40.878Z,61.77
2018-09-10T03:49:40.878Z,61.44
2018-09-10T03:50:40.875Z,61.44
2018-09-10T03:51:40.890Z,61.34
2018-09-10T03:52:40.833Z,61.37
2018-09-10T03:53:40.828Z,61.17
2018-09-10T03:54:40.817Z,61.17
2018-09-10T03:55:40.829Z,61.27
2018-09-10T03:56:40.784Z,61.07
2018-09-10T03:57:40.780Z,61.85
2018-09-10T03:58:40.769Z,61.85
2018-09-10T03:59:40.749Z,61.85
2018-09-10T04:00:40.764Z,61.47
2018-09-10T04:01:40.758Z,61.74
2018-09-10T04:02:40.722Z,61.44
2018-09-10T04:03:40.734Z,61.85
2018-09-10T04:04:40.702Z,61.67
2018-09-10T04:05:40.714Z,61.47
2018-09-10T04:06:40.666Z,61.24
2018-09-10T04:07:40.656Z,61.47
2018-09-10T04:08:40.643Z,61.17
2018-09-10T04:09:40.635Z,61.98
2018-09-10T04:10:40.625Z,61.77
2018-09-10T04:11:40.641Z,61.47
2018-09-10T04:12:40.602Z,61.77
2018-09-10T04:13:40.611Z,61.85
2018-09-10T04:14:40.576Z,61.74
2018-09-10T04:15:40.589Z,61.04
2018-09-10T04:16:40.555Z,60.84
2018-09-10T04:17:40.542Z,60.94
2018-09-10T04:18:40.561Z,60.64
2018-09-10T04:19:40.520Z,61.04
2018-09-10T04:20:40.534Z,61.44
2018-09-10T04:21:40.521Z,61.74
2018-09-10T04:22:40.482Z,61.77
2018-09-10T04:23:40.470Z,61.44
2018-09-10T04:24:40.462Z,60.84
2018-09-10T04:25:40.462Z,61.65
2018-09-10T04:26:40.473Z,61.24
2018-09-10T04:27:40.479Z,61.04
2018-09-10T04:28:40.420Z,61.74
2018-09-10T04:29:40.409Z,61.57
2018-09-10T04:30:40.396Z,61.54
2018-09-10T04:31:40.411Z,61.17
2018-09-10T04:32:40.375Z,61.44
2018-09-10T04:33:40.367Z,61.44
2018-09-10T04:34:40.354Z,60.94
2018-09-10T04:35:40.392Z,61.14
2018-09-10T04:36:40.357Z,60.84
2018-09-10T04:37:40.312Z,60.94
2018-09-10T04:38:40.327Z,61.14
2018-09-10T04:39:40.291Z,61.74
2018-09-10T04:40:40.280Z,60.94
2018-09-10T04:41:40.295Z,61.34
2018-09-10T04:42:40.262Z,61.54
2018-09-10T04:43:40.253Z,61.44
2018-09-10T04:44:40.278Z,61.94
2018-09-10T04:45:40.218Z,61.94
2018-09-10T04:46:40.278Z,61.67
2018-09-10T04:47:40.224Z,61.85
2018-09-10T04:48:40.187Z,61.14
2018-09-10T04:49:40.221Z,61.74
2018-09-10T04:50:40.167Z,61.65
2018-09-10T04:51:40.269Z,61.74
2018-09-10T04:52:40.140Z,61.74
2018-09-10T04:53:40.161Z,61.54
2018-09-10T04:54:40.115Z,61.47
2018-09-10T04:55:40.114Z,61.74
2018-09-10T04:56:40.099Z,61.94
2018-09-10T04:57:40.107Z,60.84
2018-09-10T04:58:40.143Z,61.74
2018-09-10T04:59:40.059Z,61.65
2018-09-10T05:00:40.058Z,61.65
2018-09-10T05:01:40.041Z,61.67
2018-09-10T05:02:40.049Z,61.27
2018-09-10T05:03:40.039Z,61.24
2018-09-10T05:04:40.098Z,61.74
2018-09-10T05:05:40.187Z,61.77
2018-09-10T05:06:39.981Z,61.77
2018-09-10T05:07:39.969Z,62.07
2018-09-10T05:08:40.034Z,61.65
2018-09-10T05:09:39.941Z,61.37
2018-09-10T05:10:40.100Z,61.65
2018-09-10T05:11:39.923Z,61.74
2018-09-10T05:12:39.916Z,61.94
2018-09-10T05:13:39.903Z,61.94
2018-09-10T05:14:39.915Z,62.05
2018-09-10T05:15:39.968Z,61.65
2018-09-10T05:16:39.863Z,61.77
2018-09-10T05:17:39.883Z,61.85
2018-09-10T05:18:39.861Z,61.74
2018-09-10T05:19:39.827Z,61.74
2018-09-10T05:20:40.059Z,62.05
2018-09-10T05:21:39.859Z,61.74
2018-09-10T05:22:39.797Z,61.85
2018-09-10T05:23:39.781Z,61.85
2018-09-10T05:24:39.779Z,61.65
2018-09-10T05:25:39.765Z,61.65
2018-09-10T05:26:39.783Z,61.94
2018-09-10T05:27:39.741Z,61.65
2018-09-10T05:28:39.722Z,61.94
2018-09-10T05:29:39.741Z,61.94
2018-09-10T05:30:39.711Z,62.35
2018-09-10T05:31:39.691Z,61.94
2018-09-10T05:32:39.707Z,62.24
2018-09-10T05:33:39.671Z,62.35
2018-09-10T05:34:39.749Z,61.65
2018-09-10T05:35:39.656Z,61.94
2018-09-10T05:36:39.638Z,62.24
2018-09-10T05:37:39.620Z,61.94
2018-09-10T05:38:39.621Z,62.05
2018-09-10T05:39:39.608Z,62.45
2018-09-10T05:40:39.620Z,62.05
2018-09-10T05:41:39.651Z,61.85
2018-09-10T05:42:39.568Z,62.24
2018-09-10T05:43:39.558Z,62.45
2018-09-10T05:44:39.546Z,62.35
2018-09-10T05:45:39.531Z,62.24
2018-09-10T05:46:39.550Z,61.94
2018-09-10T05:47:39.545Z,62.05
2018-09-10T05:48:39.502Z,61.94
2018-09-10T05:49:39.481Z,62.35
2018-09-10T05:50:39.504Z,62.35
2018-09-10T05:51:39.462Z,62.15
2018-09-10T05:52:39.461Z,62.05
2018-09-10T05:53:39.438Z,62.24
2018-09-10T05:54:39.425Z,62.05
2018-09-10T05:55:39.542Z,62.65
2018-09-10T05:56:39.404Z,62.24
2018-09-10T05:57:39.389Z,62.35
2018-09-10T05:58:39.380Z,62.55
2018-09-10T05:59:39.370Z,62.35
2018-09-10T06:00:39.382Z,62.75
2018-09-10T06:01:39.382Z,62.65
2018-09-10T06:02:39.343Z,62.55
2018-09-10T06:03:39.320Z,62.55
2018-09-10T06:04:39.310Z,62.15
2018-09-10T06:05:39.306Z,62.75
2018-09-10T06:06:39.312Z,62.55
2018-09-10T06:07:39.286Z,62.75
2018-09-10T06:08:39.311Z,62.07
2018-09-10T06:09:39.260Z,62.55
2018-09-10T06:10:39.313Z,62.24
2018-09-10T06:11:39.272Z,62.35
2018-09-10T06:12:39.223Z,62.35
2018-09-10T06:13:39.204Z,62.15
2018-09-10T06:14:39.191Z,62.24
2018-09-10T06:15:39.179Z,62.05
2018-09-10T06:16:39.300Z,62.24
2018-09-10T06:17:39.161Z,62.24
2018-09-10T06:18:39.153Z,62.24
2018-09-10T06:19:39.162Z,62.05
2018-09-10T06:20:39.239Z,62.65
2018-09-10T06:21:39.169Z,62.05
2018-09-10T06:22:39.100Z,62.65
2018-09-10T06:23:39.098Z,62.65
2018-09-10T06:24:39.110Z,62.65
2018-09-10T06:25:39.102Z,62.65
2018-09-10T06:26:39.113Z,62.15
2018-09-10T06:27:39.070Z,62.24
2018-09-10T06:28:39.091Z,62.65
2018-09-10T06:29:39.056Z,61.94
2018-09-10T06:30:39.045Z,62.48
2018-09-10T06:31:39.025Z,62.78
2018-09-10T06:32:39.026Z,62.68
2018-09-10T06:33:38.981Z,62.58
2018-09-10T06:34:39.221Z,62.98
2018-09-10T06:35:38.987Z,62.85
2018-09-10T06:36:38.954Z,62.75
2018-09-10T06:37:38.964Z,62.55
2018-09-10T06:38:38.935Z,61.94
2018-09-10T06:39:38.912Z,62.35
2018-09-10T06:40:38.902Z,62.55
2018-09-10T06:41:38.888Z,62.75
2018-09-10T06:42:38.928Z,62.55
2018-09-10T06:43:38.891Z,62.55
2018-09-10T06:44:38.857Z,62.24
2018-09-10T06:45:38.842Z,62.15
2018-09-10T06:46:39.699Z,62.75
2018-09-10T06:47:38.906Z,62.55
2018-09-10T06:48:38.809Z,62.24
2018-09-10T06:49:38.814Z,62.45
2018-09-10T06:50:38.797Z,62.45
2018-09-10T06:51:38.777Z,62.85
2018-09-10T06:52:38.792Z,62.55
2018-09-10T06:53:38.753Z,62.05
2018-09-10T06:54:38.742Z,62.05
2018-09-10T06:55:38.750Z,62.35
2018-09-10T06:56:38.720Z,62.55
2018-09-10T06:57:38.724Z,62.05
2018-09-10T06:58:38.737Z,62.05
2018-09-10T06:59:38.728Z,62.22
2018-09-10T07:00:38.708Z,62.32
2018-09-10T07:01:38.665Z,61.94
2018-09-10T07:02:38.656Z,62.62
2018-09-10T07:03:38.724Z,61.91
2018-09-10T07:04:38.631Z,62.72
2018-09-10T07:05:38.627Z,62.22
2018-09-10T07:06:38.616Z,62.35
2018-09-10T07:07:38.609Z,61.61
2018-09-10T07:08:38.612Z,62.12
2018-09-10T07:09:38.585Z,61.71
2018-09-10T07:10:39.248Z,62.22
2018-09-10T07:11:38.609Z,62.12
2018-09-10T07:12:39.867Z,62.32
2018-09-10T07:13:38.555Z,62.32
2018-09-10T07:14:38.518Z,62.02
2018-09-10T07:15:38.514Z,61.61
2018-09-10T07:16:38.498Z,61.41
2018-09-10T07:17:38.490Z,61.41
2018-09-10T07:18:38.589Z,61.61
2018-09-10T07:19:38.469Z,61.91
2018-09-10T07:20:38.453Z,62.52
2018-09-10T07:21:41.183Z,62.02
2018-09-10T07:22:38.430Z,62.22
2018-09-10T07:23:38.461Z,62.12
2018-09-10T07:24:38.409Z,61.91
2018-09-10T07:25:38.512Z,62.22
2018-09-10T07:26:38.391Z,61.91
2018-09-10T07:27:38.372Z,61.91
2018-09-10T07:28:38.364Z,62.82
2018-09-10T07:29:38.391Z,61.91
2018-09-10T07:30:38.339Z,61.91
2018-09-10T07:31:38.328Z,61.61
2018-09-10T07:32:38.317Z,61.29
2018-09-10T07:33:38.286Z,61.58
2018-09-10T07:34:38.381Z,61.82
2018-09-10T07:35:38.283Z,61.69
2018-09-10T07:36:38.280Z,61.29
2018-09-10T07:37:38.261Z,61.88
2018-09-10T07:38:38.268Z,61.88
2018-09-10T07:39:38.267Z,61.79
2018-09-10T07:40:38.318Z,61.38
2018-09-10T07:41:38.358Z,61.08
2018-09-10T07:42:38.209Z,61.49
2018-09-10T07:43:38.239Z,61.38
2018-09-10T07:44:38.337Z,61.58
2018-09-10T07:45:38.169Z,61.58
2018-09-10T07:46:38.204Z,62.19
2018-09-10T07:47:38.151Z,60.88
2018-09-10T07:48:38.140Z,61.08
2018-09-10T07:49:38.149Z,61.79
2018-09-10T07:50:38.352Z,61.61
2018-09-10T07:51:38.108Z,61.49
2018-09-10T07:52:38.100Z,61.91
2018-09-10T07:53:38.095Z,61.58
2018-09-10T07:54:38.135Z,62.19
2018-09-10T07:55:38.072Z,61.38
2018-09-10T07:56:38.077Z,61.99
2018-09-10T07:57:38.040Z,62.29
2018-09-10T07:58:38.042Z,62.29
2018-09-10T07:59:38.031Z,62.32
2018-09-10T08:00:38.015Z,62.49
2018-09-10T08:01:38.003Z,62.39
2018-09-10T08:02:38.038Z,62.69
2018-09-10T08:03:38.021Z,62.79
2018-09-10T08:04:37.992Z,62.29
2018-09-10T08:05:38.007Z,61.88
2018-09-10T08:06:38.005Z,62.32
2018-09-10T08:07:37.958Z,62.29
2018-09-10T08:08:37.944Z,62.39
2018-09-10T08:09:37.969Z,62.49
2018-09-10T08:10:37.899Z,62.49
2018-09-10T08:11:37.884Z,61.88
2018-09-10T08:12:37.891Z,62.59
2018-09-10T08:13:37.899Z,61.99
2018-09-10T08:14:37.876Z,62.08
2018-09-10T08:15:37.905Z,61.99
2018-09-10T08:16:37.901Z,61.88
2018-09-10T08:17:37.824Z,61.58
2018-09-10T08:18:37.817Z,61.99
2018-09-10T08:19:37.792Z,61.88
2018-09-10T08:20:37.781Z,62.19
2018-09-10T08:21:37.769Z,62.19
2018-09-10T08:22:38.047Z,62.89
2018-09-10T08:23:37.762Z,61.99
2018-09-10T08:24:37.740Z,62.08
2018-09-10T08:25:37.732Z,61.88
2018-09-10T08:26:37.711Z,62.12
2018-09-10T08:27:37.700Z,62.49
2018-09-10T08:28:37.722Z,62.79
2018-09-10T08:29:37.696Z,62.49
2018-09-10T08:30:37.671Z,62.19
2018-09-10T08:31:37.681Z,62.19
2018-09-10T08:32:37.658Z,62.29
2018-09-10T08:33:37.647Z,62.49
2018-09-10T08:34:37.634Z,62.19
2018-09-10T08:35:37.610Z,61.99
2018-09-10T08:36:37.634Z,62.39
2018-09-10T08:37:37.593Z,62.79
2018-09-10T08:38:37.584Z,62.69
2018-09-10T08:39:37.559Z,61.88
2018-09-10T08:40:37.583Z,62.19
2018-09-10T08:41:37.545Z,62.49
2018-09-10T08:42:37.621Z,62.29
2018-09-10T08:43:37.518Z,62.29
2018-09-10T08:44:37.504Z,62.59
2018-09-10T08:45:37.496Z,62.49
2018-09-10T08:46:37.492Z,62.39
2018-09-10T08:47:37.510Z,62.99
2018-09-10T08:48:37.457Z,62.39
2018-09-10T08:49:37.450Z,62.29
2018-09-10T08:50:37.441Z,61.79
2018-09-10T08:51:37.427Z,62.49
2018-09-10T08:52:37.474Z,62.08
2018-09-10T08:53:37.411Z,61.88
2018-09-10T08:54:37.663Z,62.08
2018-09-10T08:55:37.532Z,62.08
2018-09-10T08:56:37.379Z,62.89
2018-09-10T08:57:37.380Z,62.49
2018-09-10T08:58:37.355Z,62.02
2018-09-10T08:59:37.337Z,62.08
2018-09-10T09:00:37.321Z,62.08
2018-09-10T09:01:37.310Z,62.29
2018-09-10T09:02:37.598Z,62.19
2018-09-10T09:03:37.283Z,62.79
2018-09-10T09:04:37.283Z,61.99
2018-09-10T09:05:37.259Z,62.39
2018-09-10T09:06:37.253Z,61.88
2018-09-10T09:07:37.252Z,61.99
2018-09-10T09:08:37.269Z,61.99
2018-09-10T09:09:37.216Z,62.19
2018-09-10T09:10:37.212Z,62.29
2018-09-10T09:11:37.211Z,61.99
2018-09-10T09:12:37.211Z,61.88
2018-09-10T09:13:37.212Z,62.79
2018-09-10T09:14:37.160Z,62.69
2018-09-10T09:15:37.151Z,62.59
2018-09-10T09:16:37.138Z,62.69
2018-09-10T09:17:37.205Z,62.79
2018-09-10T09:18:37.141Z,61.99
2018-09-10T09:19:37.111Z,62.59
2018-09-10T09:20:37.120Z,62.29
2018-09-10T09:21:37.076Z,62.36
2018-09-10T09:22:37.072Z,61.88
2018-09-10T09:23:37.155Z,62.06
2018-09-10T09:24:37.051Z,62.59
2018-09-10T09:25:37.036Z,62.46
2018-09-10T09:26:37.053Z,62.69
2018-09-10T09:27:37.015Z,62.59
2018-09-10T09:28:36.996Z,62.29
2018-09-10T09:29:37.076Z,62.99
2018-09-10T09:30:36.977Z,61.99
2018-09-10T09:31:36.980Z,62.29
2018-09-10T09:32:36.963Z,62.29
2018-09-10T09:33:37.003Z,62.08
2018-09-10T09:34:36.928Z,61.88
2018-09-10T09:35:37.063Z,61.88
2018-09-10T09:36:36.910Z,62.19
2018-09-10T09:37:36.979Z,62.29
2018-09-10T09:38:36.884Z,62.29
2018-09-10T09:39:36.879Z,62.19
2018-09-10T09:40:36.906Z,62.49
2018-09-10T09:41:36.853Z,62.29
2018-09-10T09:42:36.842Z,62.29
2018-09-10T09:43:36.830Z,62.08
2018-09-10T09:44:36.856Z,61.99
2018-09-10T09:45:36.799Z,62.69
2018-09-10T09:46:36.842Z,62.66
2018-09-10T09:47:36.805Z,62.96
2018-09-10T09:48:36.807Z,62.19
2018-09-10T09:49:36.799Z,62.08
2018-09-10T09:50:36.770Z,62.08
2018-09-10T09:51:36.766Z,61.99
2018-09-10T09:52:36.757Z,62.49
2018-09-10T09:53:36.739Z,62.49
2018-09-10T09:54:36.728Z,63.90
2018-09-10T09:55:36.741Z,63.49
2018-09-10T09:56:36.699Z,63.39
2018-09-10T09:57:36.690Z,63.70
2018-09-10T09:58:36.680Z,63.70
2018-09-10T09:59:36.648Z,63.29
2018-09-10T10:00:36.686Z,62.49
2018-09-10T10:01:36.636Z,62.39
2018-09-10T10:02:36.608Z,62.19
2018-09-10T10:03:36.600Z,62.46
2018-09-10T10:04:36.693Z,62.29
2018-09-10T10:05:36.587Z,62.59
2018-09-10T10:06:36.588Z,62.29
2018-09-10T10:07:36.560Z,62.26
2018-09-10T10:08:36.615Z,62.69
2018-09-10T10:09:36.544Z,63.39
2018-09-10T10:10:36.627Z,63.49
2018-09-10T10:11:36.558Z,62.49
2018-09-10T10:12:37.179Z,62.79
2018-09-10T10:13:36.493Z,63.59
2018-09-10T10:14:36.474Z,62.46
2018-09-10T10:15:36.469Z,63.09
2018-09-10T10:16:36.498Z,62.36
2018-09-10T10:17:36.441Z,62.69
2018-09-10T10:18:36.428Z,61.99
2018-09-10T10:19:37.155Z,62.69
2018-09-10T10:20:36.429Z,62.79
2018-09-10T10:21:36.398Z,62.69
2018-09-10T10:22:36.387Z,62.26
2018-09-10T10:23:36.375Z,62.46
2018-09-10T10:24:36.361Z,63.76
2018-09-10T10:25:36.357Z,63.46
2018-09-10T10:26:36.368Z,62.59
2018-09-10T10:27:36.330Z,63.36
2018-09-10T10:28:36.312Z,63.09
2018-09-10T10:29:36.309Z,63.70
2018-09-10T10:30:36.291Z,63.09
2018-09-10T10:31:36.311Z,63.26
2018-09-10T10:32:38.138Z,63.90
2018-09-10T10:33:36.251Z,63.90
2018-09-10T10:34:36.240Z,62.76
2018-09-10T10:35:36.228Z,62.36
2018-09-10T10:36:36.377Z,63.49
2018-09-10T10:37:36.174Z,63.39
2018-09-10T10:38:36.201Z,63.49
2018-09-10T10:39:36.198Z,63.70
2018-09-10T10:40:36.176Z,63.59
2018-09-10T10:41:36.177Z,63.70
2018-09-10T10:42:36.170Z,62.76
2018-09-10T10:43:36.162Z,62.59
2018-09-10T10:44:36.140Z,62.69
2018-09-10T10:45:36.122Z,62.49
2018-09-10T10:46:36.107Z,62.69
2018-09-10T10:47:36.225Z,62.79
2018-09-10T10:48:36.089Z,62.79
2018-09-10T10:49:36.075Z,62.49
2018-09-10T10:50:36.077Z,63.79
2018-09-10T10:51:36.054Z,62.49
2018-09-10T10:52:36.077Z,62.29
2018-09-10T10:53:36.041Z,62.29
2018-09-10T10:54:36.025Z,63.19
2018-09-10T10:55:36.013Z,62.29
2018-09-10T10:56:35.991Z,62.79
2018-09-10T10:57:36.014Z,62.69
2018-09-10T10:58:36.005Z,62.39
2018-09-10T10:59:35.962Z,62.69
2018-09-10T11:00:35.951Z,62.26
2018-09-10T11:01:35.945Z,63.90
2018-09-10T11:02:35.962Z,63.06
2018-09-10T11:03:35.917Z,62.59
2018-09-10T11:04:35.908Z,62.49
2018-09-10T11:05:35.903Z,62.79
2018-09-10T11:06:35.881Z,62.19
2018-09-10T11:07:35.904Z,62.69
2018-09-10T11:08:35.863Z,63.79
2018-09-10T11:09:35.882Z,63.19
2018-09-10T11:10:35.800Z,63.36
2018-09-10T11:11:35.828Z,63.59
2018-09-10T11:12:35.811Z,63.79
2018-09-10T11:13:35.803Z,62.99
2018-09-10T11:14:35.801Z,63.59
2018-09-10T11:15:35.782Z,63.19
2018-09-10T11:16:35.840Z,64.30
2018-09-10T11:17:35.786Z,64.00
2018-09-10T11:18:35.803Z,62.19
2018-09-10T11:19:35.745Z,62.29
2018-09-10T11:20:35.722Z,64.10
2018-09-10T11:21:35.714Z,63.76
2018-09-10T11:22:35.752Z,63.39
2018-09-10T11:23:35.701Z,63.67
2018-09-10T11:24:35.681Z,63.36
2018-09-10T11:25:35.670Z,63.56
2018-09-10T11:26:35.662Z,62.36
2018-09-10T11:27:35.709Z,63.49
2018-09-10T11:28:35.661Z,63.87
2018-09-10T11:29:35.625Z,63.79
2018-09-10T11:30:35.616Z,63.96
2018-09-10T11:31:35.627Z,64.10
2018-09-10T11:32:35.620Z,64.00
2018-09-10T11:33:35.666Z,64.30
2018-09-10T11:34:35.622Z,63.49
2018-09-10T11:35:35.583Z,63.79
2018-09-10T11:36:35.540Z,63.96
2018-09-10T11:37:35.533Z,63.67
2018-09-10T11:38:35.575Z,63.56
2018-09-10T11:39:35.547Z,63.26
2018-09-10T11:40:35.503Z,63.39
2018-09-10T11:41:35.515Z,62.46
2018-09-10T11:42:35.501Z,62.66
2018-09-10T11:43:35.494Z,62.56
2018-09-10T11:44:35.489Z,63.70
2018-09-10T11:45:35.446Z,63.79
2018-09-10T11:46:35.444Z,63.76
2018-09-10T11:47:35.424Z,63.46
2018-09-10T11:48:35.414Z,63.56
2018-09-10T11:49:35.446Z,63.96
2018-09-10T11:50:35.393Z,63.39
2018-09-10T11:51:35.378Z,63.17
2018-09-10T11:52:35.374Z,63.17
2018-09-10T11:53:35.360Z,62.66
2018-09-10T11:54:35.381Z,62.86
2018-09-10T11:55:35.400Z,63.19
2018-09-10T11:56:35.335Z,63.70
2018-09-10T11:57:35.325Z,63.46
2018-09-10T11:58:35.313Z,63.70
2018-09-10T11:59:35.338Z,63.76
2018-09-10T12:00:35.282Z,63.36
2018-09-10T12:01:35.345Z,63.46
2018-09-10T12:02:35.263Z,62.96
2018-09-10T12:03:35.313Z,63.56
2018-09-10T12:04:35.284Z,63.76
2018-09-10T12:05:35.339Z,62.69
2018-09-10T12:06:35.220Z,62.66
2018-09-10T12:07:35.205Z,63.96
2018-09-10T12:08:35.186Z,63.67
2018-09-10T12:09:35.218Z,63.70
2018-09-10T12:10:35.215Z,62.46
2018-09-10T12:11:35.160Z,62.29
2018-09-10T12:12:35.140Z,62.76
2018-09-10T12:13:35.153Z,63.96
2018-09-10T12:14:35.118Z,62.66
2018-09-10T12:15:35.137Z,62.49
2018-09-10T12:16:35.105Z,63.67
2018-09-10T12:17:35.094Z,63.87
2018-09-10T12:18:35.088Z,62.36
2018-09-10T12:19:35.080Z,62.26
2018-09-10T12:20:35.103Z,63.56
2018-09-10T12:21:35.078Z,63.17
2018-09-10T12:22:35.026Z,62.36
2018-09-10T12:23:35.017Z,62.86
2018-09-10T12:24:35.002Z,62.39
2018-09-10T12:25:35.021Z,62.56
2018-09-10T12:26:35.653Z,62.96
2018-09-10T12:27:34.968Z,63.06
2018-09-10T12:28:34.964Z,62.76
2018-09-10T12:29:34.953Z,62.66
2018-09-10T12:30:34.969Z,62.49
2018-09-10T12:31:35.154Z,62.56
2018-09-10T12:32:34.923Z,62.46
2018-09-10T12:33:34.908Z,62.79
2018-09-10T12:34:34.887Z,63.56
2018-09-10T12:35:34.900Z,62.66
2018-09-10T12:36:34.868Z,62.46
2018-09-10T12:37:34.859Z,62.26
2018-09-10T12:38:34.856Z,62.79
2018-09-10T12:39:34.889Z,62.69
2018-09-10T12:40:34.892Z,62.89
2018-09-10T12:41:34.806Z,62.26
2018-09-10T12:42:34.833Z,62.76
2018-09-10T12:43:34.798Z,62.29
2018-09-10T12:44:34.872Z,62.16
2018-09-10T12:45:34.794Z,62.46
2018-09-10T12:46:34.823Z,62.66
2018-09-10T12:47:34.738Z,62.69
2018-09-10T12:48:34.871Z,62.66
2018-09-10T12:49:34.716Z,62.76
2018-09-10T12:50:34.732Z,62.66
2018-09-10T12:51:34.980Z,62.26
2018-09-10T12:52:35.625Z,62.26
2018-09-10T12:53:34.670Z,62.39